sensor_id;sensor_type;location;lat;lon;timestamp;pressure;altitude;pressure_sealevel;temperature;humidity
60355;BME280;46198;51.464;-0.066;2023-04-02T00:02:29;101702.56;;;7.71;100.00
60355;BME280;46198;51.464;-0.066;2023-04-02T00:08:25;101703.22;;;7.73;100.00
60355;BME280;46198;51.464;-0.066;2023-04-02T00:10:57;101713.13;;;7.58;100.00
60355;BME280;46198;51.464;-0.066;2023-04-02T00:13:30;101713.59;;;7.61;100.00
60355;BME280;46198;51.464;-0.066;2023-04-02T00:16:02;101722.03;;;7.66;100.00
60355;BME280;46198;51.464;-0.066;2023-04-02T00:18:32;101718.19;;;7.61;100.00
60355;BME280;46198;51.464;-0.066;2023-04-02T00:25:34;101733.78;;;7.50;100.00
60355;BME280;46198;51.464;-0.066;2023-04-02T00:28:11;101743.56;;;7.51;100.00
60355;BME280;46198;51.464;-0.066;2023-04-02T00:30:46;101747.44;;;7.49;100.00
60355;BME280;46198;51.464;-0.066;2023-04-02T00:33:18;101745.25;;;7.52;100.00
60355;BME280;46198;51.464;-0.066;2023-04-02T00:35:48;101746.56;;;7.57;100.00
60355;BME280;46198;51.464;-0.066;2023-04-02T00:38:20;101741.88;;;7.50;100.00
60355;BME280;46198;51.464;-0.066;2023-04-02T00:40:50;101747.28;;;7.50;100.00
60355;BME280;46198;51.464;-0.066;2023-04-02T00:43:19;101759.44;;;7.54;100.00
60355;BME280;46198;51.464;-0.066;2023-04-02T00:45:53;101751.34;;;7.46;100.00
60355;BME280;46198;51.464;-0.066;2023-04-02T00:48:42;101755.75;;;7.47;100.00
60355;BME280;46198;51.464;-0.066;2023-04-02T00:51:15;101755.03;;;7.53;100.00
60355;BME280;46198;51.464;-0.066;2023-04-02T00:53:45;101753.03;;;7.47;100.00
60355;BME280;46198;51.464;-0.066;2023-04-02T00:56:19;101771.59;;;7.50;100.00
60355;BME280;46198;51.464;-0.066;2023-04-02T00:59:18;101763.34;;;7.52;100.00
60355;BME280;46198;51.464;-0.066;2023-04-02T01:01:50;101766.03;;;7.52;100.00
60355;BME280;46198;51.464;-0.066;2023-04-02T01:04:30;101774.66;;;7.47;100.00
60355;BME280;46198;51.464;-0.066;2023-04-02T01:07:05;101765.53;;;7.48;100.00
60355;BME280;46198;51.464;-0.066;2023-04-02T01:09:55;101780.06;;;7.47;100.00
60355;BME280;46198;51.464;-0.066;2023-04-02T01:12:41;101782.78;;;7.47;100.00
60355;BME280;46198;51.464;-0.066;2023-04-02T01:15:16;101790.03;;;7.47;100.00
60355;BME280;46198;51.464;-0.066;2023-04-02T01:17:56;101787.34;;;7.47;100.00
60355;BME280;46198;51.464;-0.066;2023-04-02T01:20:55;101795.59;;;7.45;100.00
60355;BME280;46198;51.464;-0.066;2023-04-02T01:23:32;101793.41;;;7.41;100.00
60355;BME280;46198;51.464;-0.066;2023-04-02T01:26:09;101798.00;;;7.40;100.00
60355;BME280;46198;51.464;-0.066;2023-04-02T01:28:51;101797.28;;;7.46;100.00
60355;BME280;46198;51.464;-0.066;2023-04-02T01:31:25;101811.81;;;7.45;100.00
60355;BME280;46198;51.464;-0.066;2023-04-02T01:33:55;101810.16;;;7.44;100.00
60355;BME280;46198;51.464;-0.066;2023-04-02T01:36:29;101805.09;;;7.41;100.00
60355;BME280;46198;51.464;-0.066;2023-04-02T01:39:04;101817.22;;;7.45;100.00
60355;BME280;46198;51.464;-0.066;2023-04-02T01:41:38;101816.03;;;7.48;100.00
60355;BME280;46198;51.464;-0.066;2023-04-02T01:44:13;101816.22;;;7.38;100.00
60355;BME280;46198;51.464;-0.066;2023-04-02T01:46:47;101819.13;;;7.37;100.00
60355;BME280;46198;51.464;-0.066;2023-04-02T01:49:18;101826.72;;;7.41;100.00
60355;BME280;46198;51.464;-0.066;2023-04-02T01:51:50;101826.72;;;7.41;100.00
60355;BME280;46198;51.464;-0.066;2023-04-02T01:54:21;101824.66;;;7.43;100.00
60355;BME280;46198;51.464;-0.066;2023-04-02T01:56:49;101826.00;;;7.47;100.00
60355;BME280;46198;51.464;-0.066;2023-04-02T01:59:20;101841.88;;;7.50;100.00
60355;BME280;46198;51.464;-0.066;2023-04-02T02:01:58;101835.81;;;7.40;100.00
60355;BME280;46198;51.464;-0.066;2023-04-02T02:04:30;101836.97;;;7.46;100.00
60355;BME280;46198;51.464;-0.066;2023-04-02T02:06:59;101845.28;;;7.44;100.00
60355;BME280;46198;51.464;-0.066;2023-04-02T02:09:31;101841.22;;;7.40;100.00
60355;BME280;46198;51.464;-0.066;2023-04-02T02:12:02;101851.00;;;7.49;100.00
60355;BME280;46198;51.464;-0.066;2023-04-02T02:14:32;101845.78;;;7.40;100.00
60355;BME280;46198;51.464;-0.066;2023-04-02T02:17:01;101852.69;;;7.50;100.00
60355;BME280;46198;51.464;-0.066;2023-04-02T02:19:32;101853.38;;;7.44;100.00
60355;BME280;46198;51.464;-0.066;2023-04-02T02:22:08;101850.50;;;7.46;100.00
60355;BME280;46198;51.464;-0.066;2023-04-02T02:24:37;101853.03;;;7.47;100.00
60355;BME280;46198;51.464;-0.066;2023-04-02T02:27:37;101857.59;;;7.47;100.00
60355;BME280;46198;51.464;-0.066;2023-04-02T02:30:14;101863.97;;;7.54;100.00
60355;BME280;46198;51.464;-0.066;2023-04-02T02:32:51;101863.00;;;7.47;100.00
60355;BME280;46198;51.464;-0.066;2023-04-02T02:35:24;101859.63;;;7.45;100.00
60355;BME280;46198;51.464;-0.066;2023-04-02T02:38:00;101875.00;;;7.44;100.00
60355;BME280;46198;51.464;-0.066;2023-04-02T02:40:35;101878.69;;;7.43;100.00
60355;BME280;46198;51.464;-0.066;2023-04-02T02:43:05;101883.78;;;7.38;100.00
60355;BME280;46198;51.464;-0.066;2023-04-02T02:45:40;101893.75;;;7.38;100.00
60355;BME280;46198;51.464;-0.066;2023-04-02T02:48:12;101888.53;;;7.36;100.00
60355;BME280;46198;51.464;-0.066;2023-04-02T02:50:43;101895.97;;;7.34;100.00
60355;BME280;46198;51.464;-0.066;2023-04-02T02:53:19;101902.69;;;7.38;100.00
60355;BME280;46198;51.464;-0.066;2023-04-02T02:55:50;101903.22;;;7.33;100.00
60355;BME280;46198;51.464;-0.066;2023-04-02T02:58:27;101906.72;;;7.50;100.00
60355;BME280;46198;51.464;-0.066;2023-04-02T03:01:06;101914.19;;;7.32;100.00
60355;BME280;46198;51.464;-0.066;2023-04-02T03:03:37;101917.22;;;7.37;100.00
60355;BME280;46198;51.464;-0.066;2023-04-02T03:06:09;101920.13;;;7.36;100.00
60355;BME280;46198;51.464;-0.066;2023-04-02T03:08:51;101920.97;;;7.36;100.00
60355;BME280;46198;51.464;-0.066;2023-04-02T03:11:28;101930.06;;;7.35;100.00
60355;BME280;46198;51.464;-0.066;2023-04-02T03:14:09;101933.44;;;7.29;100.00
60355;BME280;46198;51.464;-0.066;2023-04-02T03:16:44;101939.34;;;7.24;100.00
60355;BME280;46198;51.464;-0.066;2023-04-02T03:19:22;101942.91;;;7.33;100.00
60355;BME280;46198;51.464;-0.066;2023-04-02T03:21:56;101942.25;;;7.31;100.00
60355;BME280;46198;51.464;-0.066;2023-04-02T03:24:36;101945.44;;;7.26;100.00
60355;BME280;46198;51.464;-0.066;2023-04-02T03:27:12;101953.56;;;7.26;100.00
60355;BME280;46198;51.464;-0.066;2023-04-02T03:29:46;101948.34;;;7.25;100.00
60355;BME280;46198;51.464;-0.066;2023-04-02T03:32:21;101954.06;;;7.14;100.00
60355;BME280;46198;51.464;-0.066;2023-04-02T03:34:53;101959.16;;;7.17;100.00
60355;BME280;46198;51.464;-0.066;2023-04-02T03:37:26;101961.50;;;7.20;100.00
60355;BME280;46198;51.464;-0.066;2023-04-02T03:39:59;101972.31;;;7.20;100.00
60355;BME280;46198;51.464;-0.066;2023-04-02T03:42:37;101972.81;;;7.15;100.00
60355;BME280;46198;51.464;-0.066;2023-04-02T03:45:12;101973.31;;;7.19;100.00
60355;BME280;46198;51.464;-0.066;2023-04-02T03:47:46;101985.81;;;7.20;100.00
60355;BME280;46198;51.464;-0.066;2023-04-02T03:50:22;101978.34;;;7.22;100.00
60355;BME280;46198;51.464;-0.066;2023-04-02T03:52:56;101984.94;;;7.19;100.00
60355;BME280;46198;51.464;-0.066;2023-04-02T03:55:27;101984.28;;;7.25;100.00
60355;BME280;46198;51.464;-0.066;2023-04-02T03:58:00;101993.91;;;7.20;100.00
60355;BME280;46198;51.464;-0.066;2023-04-02T04:00:36;101993.22;;;7.18;100.00
60355;BME280;46198;51.464;-0.066;2023-04-02T04:03:12;101993.56;;;7.15;100.00
60355;BME280;46198;51.464;-0.066;2023-04-02T04:05:45;101994.56;;;7.14;100.00
60355;BME280;46198;51.464;-0.066;2023-04-02T04:08:17;102000.84;;;7.14;100.00
60355;BME280;46198;51.464;-0.066;2023-04-02T04:10:50;102002.53;;;7.15;100.00
60355;BME280;46198;51.464;-0.066;2023-04-02T04:13:22;101997.94;;;7.07;100.00
60355;BME280;46198;51.464;-0.066;2023-04-02T04:15:53;102010.13;;;7.12;100.00
60355;BME280;46198;51.464;-0.066;2023-04-02T04:18:31;102010.63;;;7.15;100.00
60355;BME280;46198;51.464;-0.066;2023-04-02T04:21:14;102018.56;;;7.08;100.00
60355;BME280;46198;51.464;-0.066;2023-04-02T04:24:04;102019.22;;;7.10;100.00
60355;BME280;46198;51.464;-0.066;2023-04-02T04:26:40;102028.69;;;7.15;100.00
60355;BME280;46198;51.464;-0.066;2023-04-02T04:29:18;102016.69;;;7.09;100.00
60355;BME280;46198;51.464;-0.066;2023-04-02T04:31:54;102021.25;;;7.08;100.00
60355;BME280;46198;51.464;-0.066;2023-04-02T04:34:38;102027.84;;;7.06;100.00
60355;BME280;46198;51.464;-0.066;2023-04-02T04:37:17;102036.09;;;7.04;100.00
60355;BME280;46198;51.464;-0.066;2023-04-02T04:39:55;102038.47;;;7.07;100.00
60355;BME280;46198;51.464;-0.066;2023-04-02T04:42:27;102043.19;;;7.05;100.00
60355;BME280;46198;51.464;-0.066;2023-04-02T04:44:59;102037.28;;;7.02;100.00
60355;BME280;46198;51.464;-0.066;2023-04-02T04:47:33;102057.34;;;6.99;100.00
60355;BME280;46198;51.464;-0.066;2023-04-02T04:50:09;102056.66;;;6.97;100.00
60355;BME280;46198;51.464;-0.066;2023-04-02T04:52:41;102059.06;;;7.00;100.00
60355;BME280;46198;51.464;-0.066;2023-04-02T04:55:34;102062.94;;;6.98;100.00
60355;BME280;46198;51.464;-0.066;2023-04-02T04:58:12;102068.47;;;6.88;100.00
60355;BME280;46198;51.464;-0.066;2023-04-02T05:00:50;102075.25;;;6.92;100.00
60355;BME280;46198;51.464;-0.066;2023-04-02T05:03:27;102080.97;;;6.89;100.00
60355;BME280;46198;51.464;-0.066;2023-04-02T05:06:05;102088.06;;;6.90;100.00
60355;BME280;46198;51.464;-0.066;2023-04-02T05:08:40;102085.50;;;6.88;100.00
60355;BME280;46198;51.464;-0.066;2023-04-02T05:11:14;102088.41;;;6.87;100.00
60355;BME280;46198;51.464;-0.066;2023-04-02T05:13:49;102087.22;;;6.90;100.00
60355;BME280;46198;51.464;-0.066;2023-04-02T05:16:22;102097.34;;;6.87;100.00
60355;BME280;46198;51.464;-0.066;2023-04-02T05:18:58;102104.25;;;6.90;100.00
60355;BME280;46198;51.464;-0.066;2023-04-02T05:21:38;102114.22;;;6.90;100.00
60355;BME280;46198;51.464;-0.066;2023-04-02T05:24:27;102119.44;;;6.91;100.00
60355;BME280;46198;51.464;-0.066;2023-04-02T05:27:04;102135.94;;;6.80;100.00
60355;BME280;46198;51.464;-0.066;2023-04-02T05:29:40;102134.59;;;6.84;100.00
60355;BME280;46198;51.464;-0.066;2023-04-02T05:32:14;102140.19;;;6.82;100.00
60355;BME280;46198;51.464;-0.066;2023-04-02T05:34:47;102149.63;;;6.86;100.00
60355;BME280;46198;51.464;-0.066;2023-04-02T05:37:21;102150.09;;;6.74;100.00
60355;BME280;46198;51.464;-0.066;2023-04-02T05:39:53;102149.59;;;6.78;100.00
60355;BME280;46198;51.464;-0.066;2023-04-02T05:42:24;102160.91;;;6.74;100.00
60355;BME280;46198;51.464;-0.066;2023-04-02T05:45:16;102175.06;;;6.76;100.00
60355;BME280;46198;51.464;-0.066;2023-04-02T05:47:50;102160.94;;;6.82;100.00
60355;BME280;46198;51.464;-0.066;2023-04-02T05:50:28;102182.69;;;6.80;100.00
60355;BME280;46198;51.464;-0.066;2023-04-02T05:53:03;102189.94;;;6.80;100.00
60355;BME280;46198;51.464;-0.066;2023-04-02T05:55:42;102186.88;;;6.75;100.00
60355;BME280;46198;51.464;-0.066;2023-04-02T05:58:16;102197.34;;;6.78;100.00
60355;BME280;46198;51.464;-0.066;2023-04-02T06:01:16;102193.41;;;6.64;100.00
60355;BME280;46198;51.464;-0.066;2023-04-02T06:03:54;102210.81;;;6.70;100.00
60355;BME280;46198;51.464;-0.066;2023-04-02T06:06:39;102213.81;;;6.66;100.00
60355;BME280;46198;51.464;-0.066;2023-04-02T06:09:15;102216.94;;;6.54;100.00
60355;BME280;46198;51.464;-0.066;2023-04-02T06:11:50;102210.25;;;6.58;100.00
60355;BME280;46198;51.464;-0.066;2023-04-02T06:14:19;102225.72;;;6.56;100.00
60355;BME280;46198;51.464;-0.066;2023-04-02T06:16:48;102227.22;;;6.50;100.00
60355;BME280;46198;51.464;-0.066;2023-04-02T06:19:21;102228.84;;;6.43;100.00
60355;BME280;46198;51.464;-0.066;2023-04-02T06:21:52;102234.63;;;6.48;100.00
60355;BME280;46198;51.464;-0.066;2023-04-02T06:24:28;102228.91;;;6.51;100.00
60355;BME280;46198;51.464;-0.066;2023-04-02T06:27:01;102239.50;;;6.44;100.00
60355;BME280;46198;51.464;-0.066;2023-04-02T06:29:33;102242.50;;;6.41;100.00
60355;BME280;46198;51.464;-0.066;2023-04-02T06:32:10;102239.63;;;6.43;100.00
60355;BME280;46198;51.464;-0.066;2023-04-02T06:34:41;102247.06;;;6.41;100.00
60355;BME280;46198;51.464;-0.066;2023-04-02T06:37:18;102255.16;;;6.41;100.00
60355;BME280;46198;51.464;-0.066;2023-04-02T06:39:55;102264.09;;;6.41;100.00
60355;BME280;46198;51.464;-0.066;2023-04-02T06:42:27;102257.81;;;6.33;100.00
60355;BME280;46198;51.464;-0.066;2023-04-02T06:45:05;102273.34;;;6.39;100.00
60355;BME280;46198;51.464;-0.066;2023-04-02T06:47:50;102273.88;;;6.42;100.00
60355;BME280;46198;51.464;-0.066;2023-04-02T06:50:43;102275.41;;;6.45;100.00
60355;BME280;46198;51.464;-0.066;2023-04-02T06:53:19;102281.34;;;6.49;100.00
60355;BME280;46198;51.464;-0.066;2023-04-02T06:55:52;102288.59;;;6.48;100.00
60355;BME280;46198;51.464;-0.066;2023-04-02T06:58:26;102286.53;;;6.42;100.00
60355;BME280;46198;51.464;-0.066;2023-04-02T07:00:55;102285.22;;;6.46;100.00
60355;BME280;46198;51.464;-0.066;2023-04-02T07:03:39;102295.53;;;6.51;100.00
60355;BME280;46198;51.464;-0.066;2023-04-02T07:06:19;102308.50;;;6.47;100.00
60355;BME280;46198;51.464;-0.066;2023-04-02T07:09:15;102314.28;;;6.52;100.00
60355;BME280;46198;51.464;-0.066;2023-04-02T07:11:49;102315.88;;;6.45;100.00
60355;BME280;46198;51.464;-0.066;2023-04-02T07:14:18;102325.53;;;6.48;100.00
60355;BME280;46198;51.464;-0.066;2023-04-02T07:16:46;102318.97;;;6.50;100.00
60355;BME280;46198;51.464;-0.066;2023-04-02T07:19:17;102324.75;;;6.55;100.00
60355;BME280;46198;51.464;-0.066;2023-04-02T07:21:47;102339.19;;;6.46;100.00
60355;BME280;46198;51.464;-0.066;2023-04-02T07:24:18;102340.56;;;6.50;100.00
60355;BME280;46198;51.464;-0.066;2023-04-02T07:26:46;102347.34;;;6.54;100.00
60355;BME280;46198;51.464;-0.066;2023-04-02T07:29:16;102350.91;;;6.55;100.00
60355;BME280;46198;51.464;-0.066;2023-04-02T07:31:45;102345.63;;;6.53;100.00
60355;BME280;46198;51.464;-0.066;2023-04-02T07:34:13;102351.81;;;6.63;100.00
60355;BME280;46198;51.464;-0.066;2023-04-02T07:36:41;102346.53;;;6.62;100.00
60355;BME280;46198;51.464;-0.066;2023-04-02T07:39:09;102346.88;;;6.59;100.00
60355;BME280;46198;51.464;-0.066;2023-04-02T07:41:50;102352.13;;;6.60;100.00
60355;BME280;46198;51.464;-0.066;2023-04-02T07:44:20;102363.22;;;6.57;100.00
60355;BME280;46198;51.464;-0.066;2023-04-02T07:46:48;102354.75;;;6.52;100.00
60355;BME280;46198;51.464;-0.066;2023-04-02T07:49:16;102361.19;;;6.59;100.00
60355;BME280;46198;51.464;-0.066;2023-04-02T07:51:44;102358.34;;;6.61;100.00
60355;BME280;46198;51.464;-0.066;2023-04-02T07:54:13;102364.22;;;6.56;100.00
60355;BME280;46198;51.464;-0.066;2023-04-02T07:56:41;102359.56;;;6.66;100.00
60355;BME280;46198;51.464;-0.066;2023-04-02T07:59:09;102373.72;;;6.60;100.00
60355;BME280;46198;51.464;-0.066;2023-04-02T08:01:39;102377.94;;;6.63;100.00
60355;BME280;46198;51.464;-0.066;2023-04-02T08:04:16;102382.19;;;6.65;100.00
60355;BME280;46198;51.464;-0.066;2023-04-02T08:06:45;102389.44;;;6.65;100.00
60355;BME280;46198;51.464;-0.066;2023-04-02T08:09:14;102384.56;;;6.69;100.00
60355;BME280;46198;51.464;-0.066;2023-04-02T08:11:42;102388.44;;;6.66;100.00
60355;BME280;46198;51.464;-0.066;2023-04-02T08:14:12;102400.59;;;6.70;100.00
60355;BME280;46198;51.464;-0.066;2023-04-02T08:16:47;102405.63;;;6.65;100.00
60355;BME280;46198;51.464;-0.066;2023-04-02T08:19:16;102403.78;;;6.65;100.00
60355;BME280;46198;51.464;-0.066;2023-04-02T08:21:44;102415.94;;;6.70;100.00
60355;BME280;46198;51.464;-0.066;2023-04-02T08:24:13;102418.97;;;6.66;100.00
60355;BME280;46198;51.464;-0.066;2023-04-02T08:26:44;102422.75;;;6.74;100.00
60355;BME280;46198;51.464;-0.066;2023-04-02T08:29:13;102423.66;;;6.64;100.00
60355;BME280;46198;51.464;-0.066;2023-04-02T08:31:41;102420.56;;;6.59;100.00
60355;BME280;46198;51.464;-0.066;2023-04-02T08:34:11;102427.75;;;6.69;100.00
60355;BME280;46198;51.464;-0.066;2023-04-02T08:36:42;102426.75;;;6.70;100.00
60355;BME280;46198;51.464;-0.066;2023-04-02T08:39:10;102431.50;;;6.76;100.00
60355;BME280;46198;51.464;-0.066;2023-04-02T08:41:43;102432.06;;;6.79;100.00
60355;BME280;46198;51.464;-0.066;2023-04-02T08:44:25;102443.41;;;6.83;100.00
60355;BME280;46198;51.464;-0.066;2023-04-02T08:47:00;102446.28;;;6.81;100.00
60355;BME280;46198;51.464;-0.066;2023-04-02T08:49:33;102447.19;;;6.90;100.00
60355;BME280;46198;51.464;-0.066;2023-04-02T08:52:03;102451.25;;;6.94;100.00
60355;BME280;46198;51.464;-0.066;2023-04-02T08:54:32;102461.44;;;7.00;100.00
60355;BME280;46198;51.464;-0.066;2023-04-02T08:57:06;102462.50;;;7.07;100.00
60355;BME280;46198;51.464;-0.066;2023-04-02T08:59:43;102462.31;;;7.27;100.00
60355;BME280;46198;51.464;-0.066;2023-04-02T09:02:24;102467.00;;;7.77;100.00
60355;BME280;46198;51.464;-0.066;2023-04-02T09:04:57;102468.41;;;7.89;100.00
60355;BME280;46198;51.464;-0.066;2023-04-02T09:07:30;102480.56;;;7.85;100.00
60355;BME280;46198;51.464;-0.066;2023-04-02T09:09:59;102481.78;;;7.91;100.00
60355;BME280;46198;51.464;-0.066;2023-04-02T09:12:29;102481.91;;;7.81;100.00
60355;BME280;46198;51.464;-0.066;2023-04-02T09:15:05;102483.28;;;7.85;100.00
60355;BME280;46198;51.464;-0.066;2023-04-02T09:17:38;102499.03;;;7.90;100.00
60355;BME280;46198;51.464;-0.066;2023-04-02T09:20:22;102490.81;;;7.73;100.00
60355;BME280;46198;51.464;-0.066;2023-04-02T09:22:53;102492.84;;;7.71;100.00
60355;BME280;46198;51.464;-0.066;2023-04-02T09:25:24;102492.00;;;7.71;100.00
60355;BME280;46198;51.464;-0.066;2023-04-02T09:27:54;102490.50;;;7.76;100.00
60355;BME280;46198;51.464;-0.066;2023-04-02T09:30:33;102496.09;;;7.83;100.00
60355;BME280;46198;51.464;-0.066;2023-04-02T09:33:08;102499.19;;;7.88;100.00
60355;BME280;46198;51.464;-0.066;2023-04-02T09:35:53;102505.28;;;7.90;100.00
60355;BME280;46198;51.464;-0.066;2023-04-02T09:38:23;102507.63;;;7.85;100.00
60355;BME280;46198;51.464;-0.066;2023-04-02T09:40:58;102515.72;;;7.85;100.00
60355;BME280;46198;51.464;-0.066;2023-04-02T09:43:28;102504.78;;;7.95;100.00
60355;BME280;46198;51.464;-0.066;2023-04-02T09:45:59;102504.16;;;8.01;100.00
60355;BME280;46198;51.464;-0.066;2023-04-02T09:48:29;102510.63;;;8.16;100.00
60355;BME280;46198;51.464;-0.066;2023-04-02T09:51:06;102506.41;;;8.22;100.00
60355;BME280;46198;51.464;-0.066;2023-04-02T09:53:38;102506.81;;;8.35;100.00
60355;BME280;46198;51.464;-0.066;2023-04-02T09:56:09;102508.72;;;8.43;100.00
60355;BME280;46198;51.464;-0.066;2023-04-02T09:58:38;102509.19;;;8.38;100.00
60355;BME280;46198;51.464;-0.066;2023-04-02T10:01:24;102520.72;;;8.40;100.00
60355;BME280;46198;51.464;-0.066;2023-04-02T10:03:53;102521.44;;;8.51;100.00
60355;BME280;46198;51.464;-0.066;2023-04-02T10:06:24;102533.66;;;8.63;100.00
60355;BME280;46198;51.464;-0.066;2023-04-02T10:08:53;102537.22;;;8.63;100.00
60355;BME280;46198;51.464;-0.066;2023-04-02T10:11:25;102547.91;;;8.73;100.00
60355;BME280;46198;51.464;-0.066;2023-04-02T10:14:36;102548.44;;;8.77;100.00
60355;BME280;46198;51.464;-0.066;2023-04-02T10:17:09;102560.81;;;8.87;100.00
60355;BME280;46198;51.464;-0.066;2023-04-02T10:19:42;102548.47;;;9.01;100.00
60355;BME280;46198;51.464;-0.066;2023-04-02T10:22:17;102555.41;;;8.96;100.00
60355;BME280;46198;51.464;-0.066;2023-04-02T10:24:45;102562.19;;;9.08;100.00
60355;BME280;46198;51.464;-0.066;2023-04-02T10:27:22;102561.31;;;8.91;100.00
60355;BME280;46198;51.464;-0.066;2023-04-02T10:30:01;102567.09;;;9.04;100.00
60355;BME280;46198;51.464;-0.066;2023-04-02T10:32:36;102572.69;;;9.11;100.00
60355;BME280;46198;51.464;-0.066;2023-04-02T10:35:14;102576.41;;;9.02;100.00
60355;BME280;46198;51.464;-0.066;2023-04-02T10:38:12;102578.09;;;9.11;100.00
60355;BME280;46198;51.464;-0.066;2023-04-02T10:40:47;102590.31;;;8.99;100.00
60355;BME280;46198;51.464;-0.066;2023-04-02T10:46:20;102591.53;;;9.21;100.00
60355;BME280;46198;51.464;-0.066;2023-04-02T10:48:58;102592.22;;;9.31;100.00
60355;BME280;46198;51.464;-0.066;2023-04-02T10:51:35;102596.44;;;9.42;100.00
60355;BME280;46198;51.464;-0.066;2023-04-02T10:54:20;102602.88;;;9.49;100.00
60355;BME280;46198;51.464;-0.066;2023-04-02T10:57:03;102593.06;;;9.48;100.00
60355;BME280;46198;51.464;-0.066;2023-04-02T10:59:34;102584.72;;;9.66;100.00
60355;BME280;46198;51.464;-0.066;2023-04-02T11:02:17;102585.19;;;10.10;100.00
60355;BME280;46198;51.464;-0.066;2023-04-02T11:04:49;102579.56;;;10.04;100.00
60355;BME280;46198;51.464;-0.066;2023-04-02T11:07:25;102584.84;;;10.05;100.00
60355;BME280;46198;51.464;-0.066;2023-04-02T11:09:57;102586.56;;;9.90;100.00
60355;BME280;46198;51.464;-0.066;2023-04-02T11:12:36;102587.59;;;9.89;100.00
60355;BME280;46198;51.464;-0.066;2023-04-02T11:15:13;102586.56;;;9.98;100.00
60355;BME280;46198;51.464;-0.066;2023-04-02T11:17:43;102584.50;;;10.00;100.00
60355;BME280;46198;51.464;-0.066;2023-04-02T11:23:56;102590.06;;;10.15;100.00
60355;BME280;46198;51.464;-0.066;2023-04-02T11:26:36;102585.66;;;10.30;100.00
60355;BME280;46198;51.464;-0.066;2023-04-02T11:29:15;102596.66;;;10.37;100.00
60355;BME280;46198;51.464;-0.066;2023-04-02T11:31:44;102596.84;;;10.35;100.00
60355;BME280;46198;51.464;-0.066;2023-04-02T11:34:14;102596.69;;;10.29;100.00
60355;BME280;46198;51.464;-0.066;2023-04-02T11:37:07;102607.91;;;10.01;100.00
60355;BME280;46198;51.464;-0.066;2023-04-02T11:39:48;102604.50;;;10.15;100.00
60355;BME280;46198;51.464;-0.066;2023-04-02T11:42:28;102614.81;;;10.28;100.00
60355;BME280;46198;51.464;-0.066;2023-04-02T11:45:00;102609.91;;;10.24;100.00
60355;BME280;46198;51.464;-0.066;2023-04-02T11:47:28;102610.91;;;10.23;100.00
60355;BME280;46198;51.464;-0.066;2023-04-02T11:50:05;102612.44;;;10.33;100.00
60355;BME280;46198;51.464;-0.066;2023-04-02T11:52:49;102614.75;;;10.53;100.00
60355;BME280;46198;51.464;-0.066;2023-04-02T11:55:24;102620.66;;;10.64;100.00
60355;BME280;46198;51.464;-0.066;2023-04-02T12:07:12;102641.78;;;10.46;100.00
60355;BME280;46198;51.464;-0.066;2023-04-02T12:09:49;102648.72;;;10.49;100.00
60355;BME280;46198;51.464;-0.066;2023-04-02T12:12:25;102641.19;;;10.67;100.00
60355;BME280;46198;51.464;-0.066;2023-04-02T12:14:55;102651.63;;;10.39;100.00
60355;BME280;46198;51.464;-0.066;2023-04-02T12:17:28;102635.91;;;10.65;100.00
60355;BME280;46198;51.464;-0.066;2023-04-02T12:19:58;102642.88;;;10.68;100.00
60355;BME280;46198;51.464;-0.066;2023-04-02T12:22:31;102649.13;;;10.77;100.00
60355;BME280;46198;51.464;-0.066;2023-04-02T12:25:04;102643.97;;;11.21;100.00
60355;BME280;46198;51.464;-0.066;2023-04-02T12:27:33;102649.94;;;11.63;100.00
60355;BME280;46198;51.464;-0.066;2023-04-02T12:30:13;102661.84;;;11.85;100.00
60355;BME280;46198;51.464;-0.066;2023-04-02T12:32:43;102650.06;;;11.92;100.00
60355;BME280;46198;51.464;-0.066;2023-04-02T12:35:26;102648.41;;;11.83;100.00
60355;BME280;46198;51.464;-0.066;2023-04-02T12:37:55;102646.84;;;11.66;100.00
60355;BME280;46198;51.464;-0.066;2023-04-02T12:40:24;102652.91;;;11.76;100.00
60355;BME280;46198;51.464;-0.066;2023-04-02T12:42:53;102663.78;;;11.76;100.00
60355;BME280;46198;51.464;-0.066;2023-04-02T12:45:24;102661.06;;;11.76;100.00
60355;BME280;46198;51.464;-0.066;2023-04-02T12:47:56;102656.03;;;12.11;100.00
60355;BME280;46198;51.464;-0.066;2023-04-02T12:50:24;102660.97;;;12.07;100.00
60355;BME280;46198;51.464;-0.066;2023-04-02T12:52:53;102667.63;;;12.05;100.00
60355;BME280;46198;51.464;-0.066;2023-04-02T12:55:25;102667.28;;;11.85;100.00
60355;BME280;46198;51.464;-0.066;2023-04-02T12:57:55;102672.03;;;11.68;100.00
60355;BME280;46198;51.464;-0.066;2023-04-02T13:00:32;102668.38;;;11.98;100.00
60355;BME280;46198;51.464;-0.066;2023-04-02T13:03:16;102670.09;;;12.29;100.00
60355;BME280;46198;51.464;-0.066;2023-04-02T13:05:49;102678.59;;;12.79;100.00
60355;BME280;46198;51.464;-0.066;2023-04-02T13:08:19;102671.75;;;12.68;100.00
60355;BME280;46198;51.464;-0.066;2023-04-02T13:10:54;102674.00;;;13.16;100.00
60355;BME280;46198;51.464;-0.066;2023-04-02T13:13:30;102664.38;;;12.98;100.00
60355;BME280;46198;51.464;-0.066;2023-04-02T13:16:18;102669.47;;;13.23;100.00
60355;BME280;46198;51.464;-0.066;2023-04-02T13:18:49;102663.72;;;13.54;100.00
60355;BME280;46198;51.464;-0.066;2023-04-02T13:21:24;102673.88;;;13.24;100.00
60355;BME280;46198;51.464;-0.066;2023-04-02T13:23:54;102666.38;;;13.26;100.00
60355;BME280;46198;51.464;-0.066;2023-04-02T13:26:24;102671.50;;;12.99;99.93
60355;BME280;46198;51.464;-0.066;2023-04-02T13:28:58;102669.78;;;13.13;100.00
60355;BME280;46198;51.464;-0.066;2023-04-02T13:31:30;102678.66;;;13.00;100.00
60355;BME280;46198;51.464;-0.066;2023-04-02T13:33:59;102676.16;;;12.54;98.09
60355;BME280;46198;51.464;-0.066;2023-04-02T13:36:27;102673.31;;;12.92;97.66
60355;BME280;46198;51.464;-0.066;2023-04-02T13:38:55;102674.16;;;13.44;100.00
60355;BME280;46198;51.464;-0.066;2023-04-02T13:41:26;102674.22;;;13.14;100.00